Etusivu
METAR-TAF:

METAR-TAF

Lentoasemat :

Kristiansund, Norja

Leveyspiiri: 63-07N, Pituuspiiri: 007-50E, korkeus merenpinnasta: 6 m

Tämänhetkinen sää

Tämä raportti tehtiin 21 minuuttia sitten, kello 12.20 UTC
Tuuli 4 kn idästä/kaakosta, vaihdellen idän/koillisen ja etelän/kaakon välillä
Lämpötila 9°C
Kosteus 61%
Ilmanpaine 1017 hPa
Näkyvyys 10 km tai enemmän
ei pilviä alle 1500 m:ssä eikä cumulonimbus-pilviä

METAR: ENKB 191220Z 12004KT 070V150 CAVOK 09/02 Q1017 RMK WIND 745FT 13008KT

Aika: 14:41 (12:41 UTC)

Sääennuste

Tämä raportti tehtiin 1 tunti ja 41 minuuttia sitten, kello 11.00 UTC
Ennuste voimassa 19. päivästä klo 12 UTC - 19. päivään klo 21 UTC
Tuuli 7 kn idästä
Näkyvyys 10 km tai enemmän
ei pilviä alle 1500 m:ssä eikä cumulonimbus-pilviä

TAF: ENKB 191100Z 1912/1921 10007KT CAVOK

Säähavainnot ja -ennusteet yli 4000 lentoasemalta (METAR- ja TAF-raportit).

Käytössä olevat sääasemat on merkitty karttaan keltaisilla ja punaisilla pisteillä.

Aseta hiiri pisteen päälle nähdäksesi sääaseman nimen.

Klikkaa sitten nähdäksesi säähavainnot ja -ennusteet.

Kartan vaihtaminen: klikkaa mustalla rastilla varustettuja vihreitä pisteitä, niin voit zoomata sisään; viivalla varustettua vihreää pistettä, niin voit zoomata ulos tai vihreitä nuolia, niin pääset viereisille kartoille.


METAR-TAF: